createdAt,value
2022-08-26T00:01:54.316Z,61.35
2022-08-26T00:04:23.926Z,60.85
2022-08-26T00:06:52.642Z,60.85
2022-08-26T00:09:20.001Z,60.67
2022-08-26T00:11:47.716Z,61.06
2022-08-26T00:14:16.585Z,60.86
2022-08-26T00:16:47.738Z,60.76
2022-08-26T00:19:21.630Z,60.64
2022-08-26T00:21:50.031Z,60.80
2022-08-26T00:24:19.630Z,60.74
2022-08-26T00:26:48.831Z,61.30
2022-08-26T00:29:18.999Z,61.08
2022-08-26T00:31:54.801Z,60.87
2022-08-26T00:34:23.993Z,60.85
2022-08-26T00:36:52.225Z,61.62
2022-08-26T00:39:20.451Z,61.60
2022-08-26T00:41:48.666Z,61.45
2022-08-26T00:44:16.293Z,61.25
2022-08-26T00:46:51.585Z,61.45
2022-08-26T00:49:38.692Z,61.51
2022-08-26T00:52:12.037Z,62.47
2022-08-26T00:54:47.067Z,61.90
2022-08-26T00:57:17.932Z,61.69
2022-08-26T00:59:49.202Z,61.58
2022-08-26T01:02:20.888Z,61.39
2022-08-26T01:04:54.277Z,61.53
2022-08-26T01:07:30.320Z,61.39
2022-08-26T01:10:01.562Z,61.01
2022-08-26T01:12:33.999Z,61.08
2022-08-26T01:15:02.599Z,61.39
2022-08-26T01:17:30.895Z,61.20
2022-08-26T01:20:18.790Z,60.89
2022-08-26T01:23:04.770Z,60.61
2022-08-26T01:25:35.283Z,60.83
2022-08-26T01:28:07.009Z,60.89
2022-08-26T01:30:35.628Z,60.79
2022-08-26T01:33:08.029Z,60.97
2022-08-26T01:35:37.673Z,61.16
2022-08-26T01:38:05.670Z,61.24
2022-08-26T01:40:37.557Z,61.58
2022-08-26T01:43:08.805Z,61.52
2022-08-26T01:45:40.718Z,61.74
2022-08-26T01:48:12.602Z,62.03
2022-08-26T01:50:40.534Z,62.30
2022-08-26T01:53:13.296Z,62.42
2022-08-26T01:55:44.700Z,62.32
2022-08-26T01:58:26.639Z,62.34
2022-08-26T02:00:54.892Z,62.66
2022-08-26T02:03:22.827Z,62.94
2022-08-26T02:05:57.291Z,63.08
2022-08-26T02:08:47.837Z,63.31
2022-08-26T02:11:15.695Z,63.61
2022-08-26T02:13:51.053Z,63.90
2022-08-26T02:16:22.388Z,63.83
2022-08-26T02:18:53.261Z,63.57
2022-08-26T02:21:21.610Z,63.66
2022-08-26T02:23:52.692Z,63.81
2022-08-26T02:26:26.978Z,63.66
2022-08-26T02:29:02.538Z,63.78
2022-08-26T02:31:30.283Z,63.71
2022-08-26T02:34:12.454Z,63.63
2022-08-26T02:36:40.366Z,63.87
2022-08-26T02:39:08.896Z,63.63
2022-08-26T02:41:37.845Z,63.67
2022-08-26T02:44:13.373Z,63.59
2022-08-26T02:46:41.753Z,63.53
2022-08-26T02:49:17.891Z,63.21
2022-08-26T02:51:45.936Z,63.13
2022-08-26T02:54:14.176Z,62.90
2022-08-26T02:56:41.687Z,62.36
2022-08-26T02:59:09.642Z,61.64
2022-08-26T03:01:37.173Z,60.69
2022-08-26T03:04:07.145Z,59.28
2022-08-26T03:06:34.915Z,58.56
2022-08-26T03:09:05.904Z,57.72
2022-08-26T03:11:34.029Z,57.90
2022-08-26T03:14:03.643Z,57.62
2022-08-26T03:16:33.840Z,57.33
2022-08-26T03:19:03.127Z,56.90
2022-08-26T03:21:31.383Z,56.73
2022-08-26T03:23:59.605Z,56.89
2022-08-26T03:26:28.715Z,55.95
2022-08-26T03:29:15.753Z,54.37
2022-08-26T03:31:44.225Z,53.58
2022-08-26T03:34:14.925Z,53.30
2022-08-26T03:36:42.390Z,53.15
2022-08-26T03:39:12.563Z,52.67
2022-08-26T03:41:40.706Z,52.50
2022-08-26T03:44:11.719Z,52.12
2022-08-26T03:46:40.125Z,51.70
2022-08-26T03:49:08.074Z,51.83
2022-08-26T03:51:38.743Z,51.55
2022-08-26T03:54:08.337Z,50.78
2022-08-26T03:56:36.838Z,49.79
2022-08-26T03:59:05.009Z,48.16
2022-08-26T04:01:36.000Z,46.25
2022-08-26T04:04:04.629Z,44.84
2022-08-26T04:06:44.959Z,43.55
2022-08-26T04:09:18.704Z,42.06
2022-08-26T04:11:50.723Z,40.40
2022-08-26T04:14:21.579Z,38.53
2022-08-26T04:16:50.124Z,37.95
2022-08-26T04:19:19.962Z,36.23
2022-08-26T04:21:51.629Z,34.95
2022-08-26T04:24:21.993Z,33.83
2022-08-26T04:26:49.851Z,32.98
2022-08-26T04:29:20.273Z,32.29
2022-08-26T04:31:55.342Z,31.57
2022-08-26T04:34:24.921Z,30.38
2022-08-26T04:36:56.736Z,29.84
2022-08-26T04:39:24.526Z,28.30
2022-08-26T04:41:55.382Z,27.86
2022-08-26T04:44:25.891Z,27.37
2022-08-26T04:46:53.837Z,26.85
2022-08-26T04:49:23.190Z,26.15
2022-08-26T04:51:53.925Z,25.78
2022-08-26T04:54:22.274Z,24.92
2022-08-26T04:56:50.934Z,24.94
2022-08-26T04:59:18.462Z,24.68
2022-08-26T05:01:51.917Z,23.66
2022-08-26T05:04:21.179Z,22.70
2022-08-26T05:06:49.407Z,22.63
2022-08-26T05:09:18.811Z,22.15
2022-08-26T05:11:48.458Z,22.15
2022-08-26T05:14:23.617Z,21.17
2022-08-26T05:16:51.199Z,21.12
2022-08-26T05:19:19.616Z,20.65
2022-08-26T05:21:48.986Z,20.39
2022-08-26T05:24:18.041Z,19.77
2022-08-26T05:26:46.137Z,19.22
2022-08-26T05:29:32.042Z,19.40
2022-08-26T05:32:00.870Z,18.90
2022-08-26T05:34:30.166Z,18.45
2022-08-26T05:36:58.795Z,18.18
2022-08-26T05:39:26.240Z,17.97
2022-08-26T05:41:53.515Z,18.08
2022-08-26T05:44:21.474Z,18.08
2022-08-26T05:46:49.754Z,16.99
2022-08-26T05:49:18.837Z,17.26
2022-08-26T05:51:47.687Z,16.70
2022-08-26T05:54:22.071Z,17.02
2022-08-26T05:56:51.945Z,16.29
2022-08-26T05:59:24.234Z,16.69
2022-08-26T06:01:53.858Z,16.84
2022-08-26T06:04:22.241Z,15.54
2022-08-26T06:06:52.308Z,15.73
2022-08-26T06:09:19.925Z,16.07
2022-08-26T06:11:47.246Z,15.04
2022-08-26T06:14:15.653Z,14.90
2022-08-26T06:16:45.500Z,14.98
2022-08-26T06:19:15.731Z,14.77
2022-08-26T06:21:47.353Z,14.82
2022-08-26T06:24:39.689Z,14.65
2022-08-26T06:27:11.321Z,14.22
2022-08-26T06:29:38.961Z,14.77
2022-08-26T06:32:06.973Z,14.31
2022-08-26T06:34:36.705Z,14.12
2022-08-26T06:37:06.499Z,13.70
2022-08-26T06:39:34.487Z,13.54
2022-08-26T06:42:06.084Z,13.53
2022-08-26T06:44:35.054Z,12.65
2022-08-26T06:47:02.375Z,12.54
2022-08-26T06:49:29.940Z,12.93
2022-08-26T06:52:00.136Z,12.61
2022-08-26T06:54:30.490Z,13.17
2022-08-26T06:56:58.641Z,12.39
2022-08-26T06:59:26.204Z,11.97
2022-08-26T07:01:55.084Z,12.23
2022-08-26T07:04:25.057Z,12.17
2022-08-26T07:06:55.924Z,11.13
2022-08-26T07:09:26.190Z,11.12
2022-08-26T07:11:56.337Z,11.50
2022-08-26T07:14:25.119Z,10.85
2022-08-26T07:16:54.885Z,10.59
2022-08-26T07:19:31.001Z,10.76
2022-08-26T07:22:05.406Z,10.84
2022-08-26T07:24:35.178Z,10.39
2022-08-26T07:27:05.871Z,10.50
2022-08-26T07:29:34.868Z,10.69
2022-08-26T07:32:03.426Z,10.53
2022-08-26T07:34:33.157Z,10.96
2022-08-26T07:37:02.011Z,11.98
2022-08-26T07:39:31.313Z,11.90
2022-08-26T07:42:01.697Z,11.96
2022-08-26T07:44:36.785Z,11.94
2022-08-26T07:47:10.404Z,11.91
2022-08-26T07:49:52.877Z,11.53
2022-08-26T07:52:26.162Z,11.03
2022-08-26T07:55:00.158Z,11.19
2022-08-26T07:57:28.682Z,11.30
2022-08-26T07:59:56.680Z,10.56
2022-08-26T08:02:25.755Z,10.90
2022-08-26T08:04:53.739Z,10.72
2022-08-26T08:07:21.777Z,11.31
2022-08-26T08:10:11.304Z,11.39
2022-08-26T08:12:39.470Z,11.13
2022-08-26T08:15:07.903Z,11.14
2022-08-26T08:17:35.640Z,12.04
2022-08-26T08:20:05.020Z,12.66
2022-08-26T08:22:32.666Z,13.79
2022-08-26T08:25:00.555Z,14.26
2022-08-26T08:27:34.291Z,14.70
2022-08-26T08:30:02.885Z,15.24
2022-08-26T08:32:32.636Z,16.30
2022-08-26T08:35:00.321Z,17.12
2022-08-26T08:37:28.041Z,17.81
2022-08-26T08:39:55.805Z,17.84
2022-08-26T08:42:35.453Z,18.86
2022-08-26T08:45:24.420Z,19.35
2022-08-26T08:48:01.978Z,19.86
2022-08-26T08:50:50.865Z,20.22
2022-08-26T08:53:35.589Z,20.27
2022-08-26T08:56:25.587Z,20.73
2022-08-26T08:59:14.756Z,20.69
2022-08-26T09:02:09.558Z,20.85
2022-08-26T09:04:43.521Z,20.63
2022-08-26T09:07:18.641Z,21.44
2022-08-26T09:09:51.285Z,21.37
2022-08-26T09:12:29.334Z,21.88
2022-08-26T09:15:04.798Z,21.97
2022-08-26T09:18:15.047Z,21.76
2022-08-26T09:21:03.775Z,22.04
2022-08-26T09:23:33.311Z,22.74
2022-08-26T09:26:25.874Z,22.71
2022-08-26T09:29:08.947Z,23.18
2022-08-26T09:31:39.431Z,22.55
2022-08-26T09:34:24.096Z,22.95
2022-08-26T09:36:54.127Z,23.47
2022-08-26T09:39:24.974Z,23.78
2022-08-26T09:42:14.146Z,23.09
2022-08-26T09:45:03.704Z,23.19
2022-08-26T09:47:35.022Z,23.75
2022-08-26T09:50:10.043Z,22.68
2022-08-26T09:52:40.553Z,22.94
2022-08-26T09:55:10.246Z,23.80
2022-08-26T09:58:07.972Z,23.41
2022-08-26T10:00:55.814Z,23.32
2022-08-26T10:03:31.457Z,23.13
2022-08-26T10:06:03.586Z,23.07
2022-08-26T10:08:39.117Z,23.25
2022-08-26T10:11:12.276Z,23.19
2022-08-26T10:13:45.310Z,23.06
2022-08-26T10:16:51.085Z,22.91
2022-08-26T10:19:56.074Z,23.05
2022-08-26T10:22:51.287Z,22.54
2022-08-26T10:25:35.405Z,22.25
2022-08-26T10:28:32.443Z,22.80
2022-08-26T10:31:10.437Z,22.58
2022-08-26T10:33:43.802Z,22.93
2022-08-26T10:36:43.099Z,23.23
2022-08-26T10:39:32.709Z,23.12
2022-08-26T10:42:09.111Z,22.67
2022-08-26T10:44:44.623Z,22.58
2022-08-26T10:47:25.109Z,21.75
2022-08-26T10:50:00.548Z,21.96
2022-08-26T10:52:49.286Z,22.27
2022-08-26T10:55:41.305Z,22.42
2022-08-26T10:58:33.397Z,22.26
2022-08-26T11:01:41.200Z,22.38
2022-08-26T11:04:29.939Z,22.27
2022-08-26T11:07:41.581Z,21.96
2022-08-26T11:10:37.838Z,22.32
2022-08-26T11:13:14.875Z,22.04
2022-08-26T11:15:54.955Z,22.16
2022-08-26T11:18:52.374Z,22.29
2022-08-26T11:21:53.104Z,21.94
2022-08-26T11:24:39.536Z,22.02
2022-08-26T11:27:14.564Z,21.78
2022-08-26T11:30:27.269Z,21.82
2022-08-26T11:33:04.141Z,21.80
2022-08-26T11:35:37.345Z,21.61
2022-08-26T11:38:32.981Z,21.86
2022-08-26T11:41:12.106Z,22.00
2022-08-26T11:43:44.313Z,21.92
2022-08-26T11:46:12.974Z,21.94
2022-08-26T11:48:45.250Z,22.11
2022-08-26T11:51:21.814Z,22.51
2022-08-26T11:54:09.690Z,21.99
2022-08-26T11:56:44.708Z,21.97
2022-08-26T11:59:16.058Z,21.89
2022-08-26T12:01:50.211Z,21.86
2022-08-26T12:04:33.810Z,22.48
2022-08-26T12:07:02.800Z,22.02
2022-08-26T12:09:38.254Z,22.48
2022-08-26T12:12:21.913Z,23.13
2022-08-26T12:15:29.539Z,23.30
2022-08-26T12:18:16.773Z,22.76
2022-08-26T12:20:51.435Z,23.23
2022-08-26T12:23:31.795Z,23.28
2022-08-26T12:26:34.993Z,23.55
2022-08-26T12:29:19.984Z,23.38
2022-08-26T12:31:51.422Z,23.31
2022-08-26T12:34:28.256Z,23.20
2022-08-26T12:39:39.890Z,23.10
2022-08-26T12:42:15.805Z,23.23
2022-08-26T12:44:53.335Z,23.58
2022-08-26T12:47:42.725Z,23.10
2022-08-26T12:50:25.062Z,23.29
2022-08-26T12:53:04.272Z,22.73
2022-08-26T12:55:44.197Z,22.87
2022-08-26T12:58:16.839Z,23.12
2022-08-26T13:00:52.481Z,23.47
2022-08-26T13:03:45.595Z,22.96
2022-08-26T13:06:44.812Z,23.19
2022-08-26T13:09:18.345Z,23.74
2022-08-26T13:11:46.062Z,23.63
2022-08-26T13:14:23.798Z,23.48
2022-08-26T13:16:54.249Z,23.49
2022-08-26T13:19:25.732Z,23.76
2022-08-26T13:21:58.713Z,23.87
2022-08-26T13:24:34.156Z,23.81
2022-08-26T13:27:04.462Z,23.47
2022-08-26T13:29:33.563Z,23.78
2022-08-26T13:32:01.516Z,24.02
2022-08-26T13:34:30.746Z,24.05
2022-08-26T13:36:59.359Z,23.66
2022-08-26T13:39:29.930Z,23.79
2022-08-26T13:42:00.749Z,24.26
2022-08-26T13:44:30.144Z,24.37
2022-08-26T13:47:02.577Z,23.61
2022-08-26T13:49:33.881Z,23.90
2022-08-26T13:52:02.886Z,23.98
2022-08-26T13:54:33.817Z,23.83
2022-08-26T13:57:03.516Z,24.31
2022-08-26T13:59:32.532Z,24.32
2022-08-26T14:02:04.177Z,24.60
2022-08-26T14:04:31.386Z,24.67
2022-08-26T14:07:01.289Z,24.38
2022-08-26T14:09:35.446Z,23.93
2022-08-26T14:12:11.990Z,24.08
2022-08-26T14:14:43.803Z,24.60
2022-08-26T14:17:19.613Z,24.50
2022-08-26T14:19:51.011Z,24.85
2022-08-26T14:22:23.038Z,24.48
2022-08-26T14:24:55.947Z,24.69
2022-08-26T14:27:27.159Z,24.78
2022-08-26T14:30:00.213Z,24.65
2022-08-26T14:32:34.157Z,24.49
2022-08-26T14:35:05.146Z,24.94
2022-08-26T14:37:32.940Z,24.56
2022-08-26T14:40:01.368Z,24.43
2022-08-26T14:42:40.161Z,24.43
2022-08-26T14:45:09.765Z,24.91
2022-08-26T14:47:45.676Z,24.98
2022-08-26T14:50:15.544Z,24.75
2022-08-26T14:55:56.320Z,25.10
2022-08-26T14:58:28.581Z,25.10
2022-08-26T15:01:04.614Z,25.13
2022-08-26T15:03:33.431Z,25.32
2022-08-26T15:06:01.428Z,25.23
2022-08-26T15:11:24.952Z,26.18
2022-08-26T15:13:53.592Z,25.92
2022-08-26T15:16:23.886Z,26.45
2022-08-26T15:18:53.944Z,26.33
2022-08-26T15:21:22.643Z,26.83
2022-08-26T15:23:55.599Z,26.76
2022-08-26T15:26:25.310Z,27.45
2022-08-26T15:28:52.742Z,27.01
2022-08-26T15:31:25.970Z,27.52
2022-08-26T15:33:53.722Z,27.75
2022-08-26T15:36:21.063Z,27.70
2022-08-26T15:38:48.433Z,28.51
2022-08-26T15:41:15.932Z,28.59
2022-08-26T15:43:43.371Z,28.75
2022-08-26T15:46:12.192Z,28.63
2022-08-26T15:48:39.868Z,29.77
2022-08-26T15:51:08.096Z,30.74
2022-08-26T15:53:35.993Z,30.63
2022-08-26T15:56:03.840Z,30.63
2022-08-26T15:58:31.152Z,31.02
2022-08-26T16:00:58.741Z,31.47
2022-08-26T16:03:26.470Z,31.32
2022-08-26T16:05:53.856Z,32.32
2022-08-26T16:08:21.496Z,32.17
2022-08-26T16:10:50.814Z,33.14
2022-08-26T16:13:20.431Z,33.58
2022-08-26T16:15:48.555Z,32.63
2022-08-26T16:18:16.849Z,33.34
2022-08-26T16:20:55.378Z,34.08
2022-08-26T16:23:38.559Z,34.09
2022-08-26T16:26:11.611Z,33.72
2022-08-26T16:28:40.167Z,33.92
2022-08-26T16:31:10.429Z,35.25
2022-08-26T16:33:38.356Z,35.32
2022-08-26T16:36:06.055Z,36.03
2022-08-26T16:38:33.947Z,36.06
2022-08-26T16:41:01.609Z,36.20
2022-08-26T16:43:29.204Z,36.21
2022-08-26T16:45:57.067Z,36.52
2022-08-26T16:48:24.915Z,36.64
2022-08-26T16:50:55.723Z,36.87
2022-08-26T16:53:23.912Z,37.16
2022-08-26T16:55:52.178Z,37.30
2022-08-26T16:58:22.072Z,37.80
2022-08-26T17:00:49.716Z,38.07
2022-08-26T17:03:17.401Z,38.53
2022-08-26T17:05:44.919Z,38.26
2022-08-26T17:08:15.389Z,38.65
2022-08-26T17:10:55.474Z,39.09
2022-08-26T17:13:34.594Z,39.18
2022-08-26T17:16:06.891Z,39.43
2022-08-26T17:18:34.870Z,39.93
2022-08-26T17:21:08.492Z,39.67
2022-08-26T17:23:37.641Z,39.92
2022-08-26T17:26:05.465Z,40.12
2022-08-26T17:28:33.665Z,40.37
2022-08-26T17:31:02.121Z,41.04
2022-08-26T17:33:29.976Z,40.77
2022-08-26T17:35:57.881Z,41.06
2022-08-26T17:38:26.100Z,41.13
2022-08-26T17:40:53.746Z,41.53
2022-08-26T17:43:21.418Z,41.72
2022-08-26T17:45:49.611Z,41.73
2022-08-26T17:48:17.414Z,41.83
2022-08-26T17:50:49.314Z,41.96
2022-08-26T17:53:18.772Z,42.15
2022-08-26T17:55:50.673Z,42.09
2022-08-26T17:58:23.374Z,42.68
2022-08-26T18:00:54.984Z,42.73
2022-08-26T18:03:23.060Z,43.32
2022-08-26T18:05:52.082Z,43.98
2022-08-26T18:08:19.978Z,43.83
2022-08-26T18:10:47.452Z,44.08
2022-08-26T18:13:15.480Z,44.45
2022-08-26T18:15:45.698Z,44.39
2022-08-26T18:18:14.481Z,44.78
2022-08-26T18:20:43.717Z,45.03
2022-08-26T18:23:13.204Z,45.42
2022-08-26T18:25:42.093Z,45.29
2022-08-26T18:28:10.108Z,45.38
2022-08-26T18:30:37.775Z,45.36
2022-08-26T18:33:05.145Z,45.54
2022-08-26T18:35:32.589Z,45.79
2022-08-26T18:38:07.615Z,46.00
2022-08-26T18:40:41.040Z,45.69
2022-08-26T18:43:09.761Z,45.64
2022-08-26T18:45:37.223Z,45.95
2022-08-26T18:48:05.651Z,46.43
2022-08-26T18:50:33.204Z,46.50
2022-08-26T18:53:02.526Z,46.63
2022-08-26T18:55:30.122Z,46.59
2022-08-26T18:57:57.703Z,46.76
2022-08-26T19:00:25.050Z,47.18
2022-08-26T19:02:52.624Z,47.37
2022-08-26T19:05:23.786Z,47.16
2022-08-26T19:07:51.652Z,47.24
2022-08-26T19:10:19.283Z,47.48
2022-08-26T19:12:46.917Z,47.56
2022-08-26T19:15:19.782Z,47.96
2022-08-26T19:17:48.598Z,48.18
2022-08-26T19:20:15.974Z,48.52
2022-08-26T19:22:43.498Z,48.81
2022-08-26T19:25:10.982Z,48.68
2022-08-26T19:27:38.374Z,48.97
2022-08-26T19:30:07.386Z,49.33
2022-08-26T19:32:35.722Z,49.24
2022-08-26T19:35:02.996Z,49.67
2022-08-26T19:37:30.766Z,49.80
2022-08-26T19:39:58.520Z,50.25
2022-08-26T19:42:26.099Z,50.46
2022-08-26T19:45:24.309Z,50.46
2022-08-26T19:47:53.741Z,50.11
2022-08-26T19:50:22.685Z,50.53
2022-08-26T19:52:50.126Z,50.29
2022-08-26T19:55:19.285Z,50.31
2022-08-26T19:57:47.061Z,50.51
2022-08-26T20:00:18.151Z,50.38
2022-08-26T20:02:46.037Z,50.67
2022-08-26T20:05:14.671Z,50.87
2022-08-26T20:07:42.390Z,50.87
2022-08-26T20:10:15.880Z,51.21
2022-08-26T20:12:43.305Z,51.36
2022-08-26T20:15:12.903Z,51.34
2022-08-26T20:17:41.204Z,51.31
2022-08-26T20:20:33.262Z,51.30
2022-08-26T20:23:03.862Z,51.15
2022-08-26T20:25:32.876Z,51.06
2022-08-26T20:28:01.232Z,51.09
2022-08-26T20:30:28.933Z,51.06
2022-08-26T20:32:57.205Z,51.45
2022-08-26T20:35:24.504Z,51.03
2022-08-26T20:37:52.224Z,50.79
2022-08-26T20:40:21.421Z,51.28
2022-08-26T20:42:48.949Z,51.63
2022-08-26T20:45:16.817Z,52.10
2022-08-26T20:47:44.165Z,52.18
2022-08-26T20:50:11.588Z,52.64
2022-08-26T20:52:39.043Z,52.57
2022-08-26T20:55:06.873Z,52.66
2022-08-26T20:57:34.544Z,52.65
2022-08-26T21:00:02.676Z,52.08
2022-08-26T21:02:31.965Z,52.00
2022-08-26T21:05:00.048Z,51.88
2022-08-26T21:07:27.784Z,51.84
2022-08-26T21:09:55.567Z,51.75
2022-08-26T21:12:22.893Z,52.01
2022-08-26T21:14:50.721Z,52.18
2022-08-26T21:17:18.101Z,52.61
2022-08-26T21:19:45.584Z,52.71
2022-08-26T21:22:13.285Z,52.73
2022-08-26T21:24:40.503Z,52.76
2022-08-26T21:27:07.970Z,53.10
2022-08-26T21:29:36.985Z,53.13
2022-08-26T21:32:05.521Z,53.13
2022-08-26T21:34:33.141Z,53.38
2022-08-26T21:37:00.800Z,53.80
2022-08-26T21:39:28.387Z,54.04
2022-08-26T21:41:56.237Z,54.25
2022-08-26T21:44:23.551Z,54.52
2022-08-26T21:46:51.113Z,54.43
2022-08-26T21:49:18.757Z,54.32
2022-08-26T21:51:48.413Z,54.12
2022-08-26T21:54:15.964Z,54.21
2022-08-26T21:56:47.038Z,54.38
2022-08-26T21:59:18.403Z,54.40
2022-08-26T22:01:46.034Z,54.60
2022-08-26T22:04:14.073Z,54.48
2022-08-26T22:06:44.420Z,54.61
2022-08-26T22:09:13.101Z,54.72
2022-08-26T22:11:40.687Z,54.79
2022-08-26T22:14:08.484Z,55.14
2022-08-26T22:16:36.072Z,54.86
2022-08-26T22:19:03.799Z,55.12
2022-08-26T22:21:32.326Z,55.28
2022-08-26T22:23:59.825Z,54.98
2022-08-26T22:26:33.770Z,55.24
2022-08-26T22:29:02.553Z,55.07
2022-08-26T22:31:37.804Z,54.59
2022-08-26T22:34:09.637Z,54.39
2022-08-26T22:36:43.733Z,54.23
2022-08-26T22:39:14.412Z,54.66
2022-08-26T22:41:43.231Z,54.53
2022-08-26T22:44:11.995Z,55.02
2022-08-26T22:46:40.268Z,54.92
2022-08-26T22:49:10.100Z,54.99
2022-08-26T22:51:37.860Z,55.02
2022-08-26T22:54:19.584Z,54.84
2022-08-26T22:56:55.454Z,54.92
2022-08-26T22:59:32.804Z,54.81
2022-08-26T23:02:07.121Z,54.43
2022-08-26T23:04:52.279Z,54.16
2022-08-26T23:07:35.746Z,54.32
2022-08-26T23:10:19.669Z,53.76
2022-08-26T23:12:58.603Z,54.22
2022-08-26T23:15:39.156Z,54.44
2022-08-26T23:18:31.266Z,54.72
2022-08-26T23:21:07.180Z,54.86
2022-08-26T23:23:37.556Z,54.78
2022-08-26T23:26:17.504Z,54.71
2022-08-26T23:29:00.627Z,54.62
2022-08-26T23:31:36.943Z,54.86
2022-08-26T23:34:36.283Z,54.88
2022-08-26T23:37:13.234Z,55.08
2022-08-26T23:39:49.176Z,55.25
2022-08-26T23:42:28.982Z,55.15
2022-08-26T23:45:10.859Z,55.22
2022-08-26T23:47:49.482Z,55.29
2022-08-26T23:51:00.626Z,55.14
2022-08-26T23:53:37.536Z,55.52
2022-08-26T23:56:05.414Z,55.75
2022-08-26T23:58:32.844Z,56.28
